createdAt,value
2023-05-21T00:03:28.338Z,91.78
2023-05-21T00:13:31.873Z,92.57
2023-05-21T00:23:34.400Z,93.07
2023-05-21T00:33:36.903Z,93.12
2023-05-21T00:43:42.154Z,96.07
2023-05-21T00:53:46.021Z,94.25
2023-05-21T01:03:48.904Z,95.54
2023-05-21T01:13:53.388Z,96.34
2023-05-21T01:23:56.524Z,97.07
2023-05-21T01:34:05.351Z,98.65
2023-05-21T01:44:09.890Z,99.58
2023-05-21T01:54:12.460Z,99.98
2023-05-21T02:04:14.954Z,99.63
2023-05-21T02:14:17.458Z,100.00
2023-05-21T02:24:19.969Z,100.00
2023-05-21T02:34:22.703Z,100.00
2023-05-21T02:44:25.942Z,100.00
2023-05-21T02:54:28.957Z,100.00
2023-05-21T03:04:33.221Z,100.00
2023-05-21T03:14:36.088Z,100.00
2023-05-21T03:24:39.546Z,100.00
2023-05-21T03:34:43.519Z,100.00
2023-05-21T03:44:46.156Z,100.00
2023-05-21T03:55:11.630Z,100.00
2023-05-21T04:05:15.512Z,100.00
2023-05-21T04:15:21.052Z,100.00
2023-05-21T04:25:23.934Z,99.22
2023-05-21T04:35:27.525Z,100.00
2023-05-21T04:45:30.844Z,97.31
2023-05-21T04:55:39.656Z,94.66
2023-05-21T05:05:42.320Z,92.08
2023-05-21T05:15:45.834Z,89.42
2023-05-21T05:25:49.829Z,87.05
2023-05-21T05:35:53.540Z,86.79
2023-05-21T05:45:57.790Z,85.60
2023-05-21T05:56:00.574Z,83.83
2023-05-21T06:06:04.127Z,79.88
2023-05-21T06:16:10.094Z,79.03
2023-05-21T06:26:13.514Z,76.00
2023-05-21T06:36:17.475Z,76.36
2023-05-21T06:46:21.126Z,73.32
2023-05-21T06:56:23.816Z,70.41
2023-05-21T07:06:29.570Z,70.10
2023-05-21T07:16:33.691Z,69.95
2023-05-21T07:26:36.488Z,70.93
2023-05-21T07:36:40.055Z,70.97
2023-05-21T07:46:43.031Z,66.48
2023-05-21T07:56:48.145Z,67.22
2023-05-21T08:07:06.076Z,66.22
2023-05-21T08:17:11.828Z,65.46
2023-05-21T08:27:16.262Z,60.59
2023-05-21T08:37:19.186Z,58.77
2023-05-21T08:47:49.570Z,59.26
2023-05-21T08:57:54.742Z,60.03
2023-05-21T09:08:09.436Z,58.30
2023-05-21T09:18:20.813Z,55.26
2023-05-21T09:28:29.562Z,49.71
2023-05-21T09:38:34.237Z,52.62
2023-05-21T09:48:42.174Z,52.00
2023-05-21T09:59:10.314Z,49.08
2023-05-21T10:09:15.814Z,47.26
2023-05-21T10:19:20.083Z,54.70
2023-05-21T10:29:23.418Z,44.23
2023-05-21T10:39:26.289Z,51.04
2023-05-21T10:50:10.020Z,52.39
2023-05-21T11:00:15.605Z,53.24
2023-05-21T11:10:45.337Z,50.16
2023-05-21T11:20:54.106Z,50.19
2023-05-21T11:31:24.159Z,49.36
2023-05-21T11:41:26.721Z,44.88
2023-05-21T11:51:29.666Z,45.88
2023-05-21T12:01:32.303Z,41.48
2023-05-21T12:11:34.824Z,46.58
2023-05-21T12:21:38.302Z,44.64
2023-05-21T12:31:50.806Z,42.57
2023-05-21T12:41:56.505Z,41.61
2023-05-21T12:51:59.031Z,41.35
2023-05-21T13:02:01.556Z,41.11
2023-05-21T13:12:04.328Z,39.91
2023-05-21T13:22:07.329Z,37.53
2023-05-21T13:32:09.908Z,33.49
2023-05-21T13:42:12.595Z,42.79
2023-05-21T13:52:15.357Z,42.58
2023-05-21T14:02:18.140Z,46.31
2023-05-21T14:12:22.337Z,51.69
2023-05-21T14:22:25.989Z,46.60
2023-05-21T14:32:28.624Z,45.10
2023-05-21T14:42:31.968Z,43.98
2023-05-21T14:52:34.698Z,42.54
2023-05-21T15:02:38.107Z,37.93
2023-05-21T15:12:41.200Z,42.81
2023-05-21T15:22:43.765Z,40.25
2023-05-21T15:32:46.316Z,41.18
2023-05-21T15:42:48.833Z,43.81
2023-05-21T15:52:53.319Z,43.61
2023-05-21T16:02:56.520Z,47.94
2023-05-21T16:12:59.419Z,47.85
2023-05-21T16:23:03.672Z,48.05
2023-05-21T16:33:08.790Z,51.81
2023-05-21T16:43:11.532Z,50.32
2023-05-21T16:53:14.127Z,51.16
2023-05-21T17:03:16.928Z,53.00
2023-05-21T17:13:22.731Z,56.88
2023-05-21T17:23:26.165Z,56.84
2023-05-21T17:33:28.943Z,61.98
2023-05-21T17:43:32.157Z,63.19
2023-05-21T17:53:34.887Z,63.90
2023-05-21T18:03:37.521Z,65.28
2023-05-21T18:13:40.087Z,66.05
2023-05-21T18:23:42.656Z,69.39
2023-05-21T18:33:45.214Z,71.68
2023-05-21T18:43:47.945Z,72.50
2023-05-21T18:53:50.670Z,74.82
2023-05-21T19:03:53.241Z,76.21
2023-05-21T19:13:55.828Z,86.36
2023-05-21T19:23:58.741Z,84.17
2023-05-21T19:34:01.381Z,83.06
2023-05-21T19:44:03.974Z,84.76
2023-05-21T19:54:06.612Z,85.71
2023-05-21T20:04:12.320Z,91.39
2023-05-21T20:14:15.108Z,91.46
2023-05-21T20:24:17.682Z,92.03
2023-05-21T20:34:21.658Z,90.20
2023-05-21T20:44:27.593Z,92.35
2023-05-21T20:54:30.904Z,98.82
2023-05-21T21:04:35.011Z,94.90
2023-05-21T21:14:37.554Z,94.03
2023-05-21T21:24:40.077Z,96.07
2023-05-21T21:34:43.870Z,100.00
2023-05-21T21:44:47.406Z,100.00
2023-05-21T21:54:49.954Z,99.87
2023-05-21T22:04:52.525Z,99.61
2023-05-21T22:14:55.717Z,100.00
2023-05-21T22:24:58.263Z,100.00
2023-05-21T22:35:02.466Z,100.00
2023-05-21T22:45:05.799Z,100.00
2023-05-21T22:55:11.389Z,100.00
2023-05-21T23:05:14.035Z,100.00
2023-05-21T23:15:16.652Z,100.00
2023-05-21T23:25:19.112Z,100.00
2023-05-21T23:35:21.642Z,100.00
2023-05-21T23:45:24.222Z,100.00
2023-05-21T23:55:26.847Z,100.00
